createdAt,value
2023-04-07T00:01:56.633Z,100612.91
2023-04-07T00:04:23.215Z,100615.91
2023-04-07T00:06:52.328Z,100614.97
2023-04-07T00:09:18.755Z,100613.63
2023-04-07T00:11:45.347Z,100610.22
2023-04-07T00:14:14.152Z,100603.53
2023-04-07T00:16:40.693Z,100608.78
2023-04-07T00:19:07.046Z,100606.97
2023-04-07T00:21:33.565Z,100599.22
2023-04-07T00:24:00.030Z,100596.59
2023-04-07T00:26:31.396Z,100598.44
2023-04-07T00:29:01.332Z,100587.50
2023-04-07T00:31:27.735Z,100579.63
2023-04-07T00:33:55.698Z,100578.22
2023-04-07T00:36:22.398Z,100574.78
2023-04-07T00:38:48.922Z,100573.25
2023-04-07T00:41:15.764Z,100563.69
2023-04-07T00:43:42.211Z,100559.84
2023-04-07T00:46:08.696Z,100559.94
2023-04-07T00:48:37.027Z,100562.25
2023-04-07T00:51:04.097Z,100558.34
2023-04-07T00:53:30.530Z,100553.66
2023-04-07T00:55:57.069Z,100551.94
2023-04-07T00:58:23.580Z,100551.69
2023-04-07T01:00:58.295Z,100540.94
2023-04-07T01:03:35.859Z,100545.41
2023-04-07T01:06:08.667Z,100547.59
2023-04-07T01:08:53.955Z,100544.69
2023-04-07T01:11:25.993Z,100542.56
2023-04-07T01:13:54.360Z,100540.38
2023-04-07T01:16:30.433Z,100529.81
2023-04-07T01:19:04.690Z,100531.44
2023-04-07T01:21:34.277Z,100526.25
2023-04-07T01:24:32.871Z,100529.88
2023-04-07T01:27:33.000Z,100537.25
2023-04-07T01:30:03.386Z,100522.63
2023-04-07T01:32:31.565Z,100522.06
2023-04-07T01:34:59.832Z,100519.06
2023-04-07T01:37:31.060Z,100519.81
2023-04-07T01:39:57.455Z,100515.13
2023-04-07T01:42:26.204Z,100511.94
2023-04-07T01:44:53.881Z,100512.66
2023-04-07T01:47:20.617Z,100511.50
2023-04-07T01:49:50.833Z,100511.19
2023-04-07T01:52:21.365Z,100503.94
2023-04-07T01:54:48.667Z,100503.94
2023-04-07T01:57:17.523Z,100501.91
2023-04-07T01:59:49.213Z,100502.56
2023-04-07T02:02:18.079Z,100499.44
2023-04-07T02:05:00.804Z,100498.88
2023-04-07T02:07:41.162Z,100499.38
2023-04-07T02:10:15.174Z,100499.03
2023-04-07T02:12:47.057Z,100501.31
2023-04-07T02:15:15.563Z,100500.16
2023-04-07T02:17:47.810Z,100492.00
2023-04-07T02:20:15.593Z,100492.75
2023-04-07T02:22:42.656Z,100496.81
2023-04-07T02:25:22.967Z,100488.59
2023-04-07T02:27:53.333Z,100486.44
2023-04-07T02:30:20.291Z,100481.81
2023-04-07T02:32:47.306Z,100476.03
2023-04-07T02:35:17.853Z,100480.66
2023-04-07T02:37:45.360Z,100484.13
2023-04-07T02:40:14.688Z,100480.84
2023-04-07T02:42:41.656Z,100474.63
2023-04-07T02:45:09.717Z,100477.13
2023-04-07T02:47:39.485Z,100474.56
2023-04-07T02:50:06.682Z,100475.81
2023-04-07T02:52:33.057Z,100474.75
2023-04-07T02:54:59.651Z,100468.53
2023-04-07T02:57:26.213Z,100462.66
2023-04-07T02:59:52.582Z,100466.56
2023-04-07T03:02:19.204Z,100471.47
2023-04-07T03:04:45.887Z,100467.91
2023-04-07T03:07:12.419Z,100467.06
2023-04-07T03:09:38.803Z,100459.31
2023-04-07T03:12:05.315Z,100469.41
2023-04-07T03:14:31.656Z,100448.13
2023-04-07T03:17:00.619Z,100453.41
2023-04-07T03:19:27.393Z,100450.50
2023-04-07T03:21:53.962Z,100445.72
2023-04-07T03:24:20.467Z,100442.09
2023-04-07T03:26:47.150Z,100447.34
2023-04-07T03:29:13.864Z,100448.34
2023-04-07T03:31:40.515Z,100448.03
2023-04-07T03:34:07.043Z,100450.13
2023-04-07T03:36:34.549Z,100445.88
2023-04-07T03:39:00.981Z,100444.06
2023-04-07T03:41:27.327Z,100444.41
2023-04-07T03:43:53.864Z,100435.03
2023-04-07T03:46:27.247Z,100442.44
2023-04-07T03:48:53.961Z,100432.41
2023-04-07T03:51:22.957Z,100437.00
2023-04-07T03:53:49.542Z,100431.59
2023-04-07T03:56:16.228Z,100432.28
2023-04-07T03:58:49.758Z,100436.66
2023-04-07T04:01:16.206Z,100431.25
2023-04-07T04:03:43.026Z,100434.38
2023-04-07T04:06:09.577Z,100438.50
2023-04-07T04:08:35.997Z,100443.28
2023-04-07T04:11:02.424Z,100440.63
2023-04-07T04:13:28.861Z,100446.88
2023-04-07T04:15:55.269Z,100442.09
2023-04-07T04:18:21.679Z,100450.50
2023-04-07T04:20:48.790Z,100445.72
2023-04-07T04:23:16.145Z,100454.69
2023-04-07T04:25:42.561Z,100450.69
2023-04-07T04:28:08.963Z,100450.97
2023-04-07T04:30:35.430Z,100455.00
2023-04-07T04:33:01.882Z,100447.16
2023-04-07T04:35:30.560Z,100454.84
2023-04-07T04:37:56.945Z,100448.00
2023-04-07T04:40:25.970Z,100444.69
2023-04-07T04:42:52.322Z,100445.88
2023-04-07T04:45:21.584Z,100454.78
2023-04-07T04:47:48.102Z,100461.47
2023-04-07T04:50:14.718Z,100461.28
2023-04-07T04:52:41.218Z,100464.09
2023-04-07T04:55:08.239Z,100462.56
2023-04-07T04:57:36.061Z,100456.00
2023-04-07T05:00:04.377Z,100454.28
2023-04-07T05:02:30.886Z,100457.31
2023-04-07T05:04:57.645Z,100465.94
2023-04-07T05:07:28.840Z,100463.34
2023-04-07T05:09:55.349Z,100460.91
2023-04-07T05:12:22.347Z,100458.59
2023-04-07T05:14:48.736Z,100462.16
2023-04-07T05:17:15.215Z,100461.84
2023-04-07T05:19:41.642Z,100446.69
2023-04-07T05:22:08.100Z,100449.81
2023-04-07T05:24:34.597Z,100455.78
2023-04-07T05:27:01.825Z,100447.44
2023-04-07T05:29:29.137Z,100450.41
2023-04-07T05:31:58.732Z,100459.94
2023-04-07T05:34:25.594Z,100448.59
2023-04-07T05:36:52.010Z,100454.50
2023-04-07T05:39:18.455Z,100454.84
2023-04-07T05:41:47.745Z,100451.44
2023-04-07T05:44:14.195Z,100449.69
2023-04-07T05:46:40.603Z,100446.91
2023-04-07T05:51:39.847Z,100458.31
2023-04-07T05:54:11.013Z,100453.41
2023-04-07T05:56:37.372Z,100457.19
2023-04-07T05:59:03.787Z,100455.38
2023-04-07T06:01:30.307Z,100455.06
2023-04-07T06:04:03.419Z,100449.66
2023-04-07T06:06:30.090Z,100461.00
2023-04-07T06:08:58.239Z,100462.44
2023-04-07T06:11:25.516Z,100458.69
2023-04-07T06:13:51.907Z,100461.97
2023-04-07T06:16:19.677Z,100460.50
2023-04-07T06:18:46.376Z,100464.59
2023-04-07T06:21:12.766Z,100455.72
2023-04-07T06:23:39.175Z,100461.72
2023-04-07T06:26:05.664Z,100454.72
2023-04-07T06:28:32.033Z,100456.34
2023-04-07T06:30:59.456Z,100454.81
2023-04-07T06:33:26.210Z,100452.63
2023-04-07T06:35:52.829Z,100439.41
2023-04-07T06:38:19.216Z,100443.38
2023-04-07T06:40:45.687Z,100445.03
2023-04-07T06:43:12.063Z,100447.34
2023-04-07T06:45:41.375Z,100445.16
2023-04-07T06:48:08.058Z,100448.66
2023-04-07T06:50:34.525Z,100442.94
2023-04-07T06:53:03.449Z,100447.22
2023-04-07T06:55:29.945Z,100448.66
2023-04-07T06:57:58.683Z,100452.31
2023-04-07T07:00:25.650Z,100443.31
2023-04-07T07:02:52.162Z,100447.19
2023-04-07T07:05:18.702Z,100445.06
2023-04-07T07:07:45.232Z,100446.03
2023-04-07T07:10:14.205Z,100453.31
2023-04-07T07:12:40.811Z,100445.06
2023-04-07T07:15:07.996Z,100442.72
2023-04-07T07:17:36.901Z,100439.72
2023-04-07T07:20:03.538Z,100450.44
2023-04-07T07:22:30.049Z,100444.88
2023-04-07T07:24:56.511Z,100441.25
2023-04-07T07:27:22.896Z,100438.53
2023-04-07T07:29:49.322Z,100439.28
2023-04-07T07:32:15.975Z,100441.88
2023-04-07T07:34:42.491Z,100440.91
2023-04-07T07:37:08.900Z,100441.88
2023-04-07T07:39:35.440Z,100440.81
2023-04-07T07:42:02.008Z,100442.09
2023-04-07T07:44:29.311Z,100447.47
2023-04-07T07:46:57.171Z,100445.47
2023-04-07T07:49:23.600Z,100446.28
2023-04-07T07:51:50.061Z,100445.66
2023-04-07T07:54:18.996Z,100453.44
2023-04-07T07:56:45.868Z,100451.00
2023-04-07T07:59:12.397Z,100441.44
2023-04-07T08:01:44.165Z,100449.22
2023-04-07T08:04:11.056Z,100444.09
2023-04-07T08:06:37.603Z,100456.72
2023-04-07T08:09:06.348Z,100460.00
2023-04-07T08:11:33.013Z,100461.75
2023-04-07T08:14:01.771Z,100472.66
2023-04-07T08:16:28.234Z,100468.16
2023-04-07T08:18:54.720Z,100459.84
2023-04-07T08:21:21.239Z,100462.69
2023-04-07T08:23:48.020Z,100463.00
2023-04-07T08:26:14.765Z,100467.66
2023-04-07T08:28:41.336Z,100454.25
2023-04-07T08:31:07.848Z,100457.50
2023-04-07T08:33:34.359Z,100465.56
2023-04-07T08:36:05.764Z,100466.38
2023-04-07T08:38:32.352Z,100468.16
2023-04-07T08:41:06.898Z,100463.47
2023-04-07T08:43:36.414Z,100469.03
2023-04-07T08:46:03.109Z,100471.59
2023-04-07T08:48:34.327Z,100474.69
2023-04-07T08:51:09.993Z,100476.00
2023-04-07T08:53:53.690Z,100480.88
2023-04-07T08:56:21.926Z,100473.84
2023-04-07T08:58:49.066Z,100475.75
2023-04-07T09:01:16.803Z,100477.06
2023-04-07T09:03:45.463Z,100474.06
2023-04-07T09:06:12.380Z,100474.06
2023-04-07T09:08:38.859Z,100481.38
2023-04-07T09:11:05.452Z,100489.91
2023-04-07T09:13:31.818Z,100490.00
2023-04-07T09:16:01.750Z,100491.00
2023-04-07T09:18:28.538Z,100486.28
2023-04-07T09:20:56.590Z,100491.53
2023-04-07T09:23:29.283Z,100492.38
2023-04-07T09:25:59.765Z,100485.06
2023-04-07T09:28:38.132Z,100492.38
2023-04-07T09:31:04.514Z,100489.09
2023-04-07T09:33:30.954Z,100488.47
2023-04-07T09:35:57.624Z,100485.47
2023-04-07T09:38:33.497Z,100487.09
2023-04-07T09:41:17.891Z,100480.75
2023-04-07T09:43:46.198Z,100478.28
2023-04-07T09:46:16.618Z,100483.59
2023-04-07T09:48:45.566Z,100489.53
2023-04-07T09:51:18.334Z,100476.69
2023-04-07T09:53:52.528Z,100479.75
2023-04-07T09:56:22.268Z,100480.75
2023-04-07T09:58:53.360Z,100487.72
2023-04-07T10:01:21.532Z,100480.56
2023-04-07T10:03:49.091Z,100482.59
2023-04-07T10:06:16.706Z,100491.19
2023-04-07T10:08:43.844Z,100475.25
2023-04-07T10:11:10.829Z,100474.03
2023-04-07T10:13:39.720Z,100482.25
2023-04-07T10:16:08.001Z,100477.91
2023-04-07T10:18:39.122Z,100479.13
2023-04-07T10:21:08.054Z,100491.56
2023-04-07T10:23:40.920Z,100488.50
2023-04-07T10:26:08.837Z,100480.34
2023-04-07T10:28:43.968Z,100476.88
2023-04-07T10:31:11.614Z,100494.66
2023-04-07T10:33:52.120Z,100493.59
2023-04-07T10:36:22.366Z,100493.28
2023-04-07T10:39:07.062Z,100493.72
2023-04-07T10:41:43.364Z,100495.22
2023-04-07T10:44:38.753Z,100504.34
2023-04-07T10:47:06.401Z,100496.31
2023-04-07T10:49:34.600Z,100496.41
2023-04-07T10:52:13.308Z,100498.28
2023-04-07T10:54:40.125Z,100493.56
2023-04-07T10:57:11.453Z,100502.91
2023-04-07T11:00:06.942Z,100498.25
2023-04-07T11:02:33.697Z,100502.63
2023-04-07T11:05:00.519Z,100498.63
2023-04-07T11:07:47.159Z,100497.28
2023-04-07T11:10:15.928Z,100500.63
2023-04-07T11:12:43.733Z,100497.13
2023-04-07T11:15:22.545Z,100491.13
2023-04-07T11:18:12.059Z,100500.22
2023-04-07T11:21:00.667Z,100501.59
2023-04-07T11:23:30.442Z,100501.28
2023-04-07T11:26:02.054Z,100506.19
2023-04-07T11:28:29.621Z,100500.31
2023-04-07T11:31:01.043Z,100503.06
2023-04-07T11:33:32.185Z,100507.44
2023-04-07T11:36:05.680Z,100496.31
2023-04-07T11:38:38.943Z,100507.81
2023-04-07T11:41:13.452Z,100502.63
2023-04-07T11:43:43.661Z,100501.59
2023-04-07T11:46:11.416Z,100498.13
2023-04-07T11:48:42.447Z,100504.69
2023-04-07T11:51:20.501Z,100506.09
2023-04-07T11:53:50.021Z,100517.25
2023-04-07T11:56:17.496Z,100524.09
2023-04-07T11:58:54.993Z,100520.50
2023-04-07T12:01:24.659Z,100517.88
2023-04-07T12:04:02.716Z,100516.50
2023-04-07T12:06:31.814Z,100529.09
2023-04-07T12:08:58.313Z,100517.53
2023-04-07T12:11:25.281Z,100517.50
2023-04-07T12:13:51.885Z,100523.78
2023-04-07T12:16:19.298Z,100513.53
2023-04-07T12:18:45.890Z,100514.28
2023-04-07T12:21:12.273Z,100517.94
2023-04-07T12:23:38.728Z,100522.06
2023-04-07T12:26:05.302Z,100525.38
2023-04-07T12:28:33.895Z,100528.47
2023-04-07T12:31:00.328Z,100522.91
2023-04-07T12:33:26.801Z,100526.72
2023-04-07T12:35:53.378Z,100523.66
2023-04-07T12:38:22.531Z,100538.47
2023-04-07T12:40:48.931Z,100536.34
2023-04-07T12:43:15.522Z,100538.53
2023-04-07T12:45:42.180Z,100537.72
2023-04-07T12:48:08.725Z,100536.88
2023-04-07T12:50:37.516Z,100534.84
2023-04-07T12:53:05.194Z,100529.19
2023-04-07T12:55:36.654Z,100533.72
2023-04-07T12:58:05.734Z,100529.28
2023-04-07T13:00:34.729Z,100538.16
2023-04-07T13:03:01.778Z,100534.28
2023-04-07T13:05:29.261Z,100541.13
2023-04-07T13:07:55.925Z,100538.41
2023-04-07T13:10:22.364Z,100544.72
2023-04-07T13:12:51.116Z,100545.00
2023-04-07T13:15:17.547Z,100542.78
2023-04-07T13:17:44.059Z,100547.19
2023-04-07T13:20:11.076Z,100548.25
2023-04-07T13:22:46.116Z,100542.75
2023-04-07T13:25:15.389Z,100540.56
2023-04-07T13:27:44.287Z,100542.84
2023-04-07T13:30:13.958Z,100544.03
2023-04-07T13:32:40.624Z,100532.72
2023-04-07T13:35:07.338Z,100532.41
2023-04-07T13:37:33.701Z,100537.47
2023-04-07T13:40:00.302Z,100532.53
2023-04-07T13:42:26.706Z,100541.06
2023-04-07T13:44:54.529Z,100545.25
2023-04-07T13:47:21.523Z,100542.72
2023-04-07T13:49:49.264Z,100539.25
2023-04-07T13:52:16.028Z,100543.50
2023-04-07T13:54:43.155Z,100541.00
2023-04-07T13:57:09.705Z,100537.97
2023-04-07T13:59:36.232Z,100537.28
2023-04-07T14:02:02.822Z,100543.66
2023-04-07T14:04:29.419Z,100541.13
2023-04-07T14:06:56.162Z,100551.25
2023-04-07T14:09:23.027Z,100551.31
2023-04-07T14:11:52.463Z,100547.75
2023-04-07T14:14:18.829Z,100551.00
2023-04-07T14:16:45.203Z,100546.81
2023-04-07T14:19:11.758Z,100547.13
2023-04-07T14:21:38.246Z,100551.38
2023-04-07T14:24:04.670Z,100554.50
2023-04-07T14:26:31.044Z,100561.38
2023-04-07T14:28:59.888Z,100557.00
2023-04-07T14:31:26.663Z,100560.75
2023-04-07T14:33:53.270Z,100555.22
2023-04-07T14:36:19.696Z,100553.94
2023-04-07T14:38:46.136Z,100556.47
2023-04-07T14:41:13.040Z,100559.63
2023-04-07T14:43:39.834Z,100544.50
2023-04-07T14:46:06.962Z,100545.00
2023-04-07T14:48:35.839Z,100545.59
2023-04-07T14:51:09.786Z,100547.91
2023-04-07T14:53:36.743Z,100544.25
2023-04-07T14:56:06.575Z,100553.13
2023-04-07T14:58:37.566Z,100559.88
2023-04-07T15:01:06.220Z,100550.06
2023-04-07T15:03:34.775Z,100551.00
2023-04-07T15:06:02.522Z,100553.09
2023-04-07T15:08:28.999Z,100558.38
2023-04-07T15:10:55.394Z,100559.47
2023-04-07T15:13:21.870Z,100559.63
2023-04-07T15:15:48.261Z,100570.06
2023-04-07T15:18:14.695Z,100563.66
2023-04-07T15:20:41.146Z,100570.41
2023-04-07T15:23:08.103Z,100571.41
2023-04-07T15:25:34.602Z,100570.72
2023-04-07T15:28:01.082Z,100571.31
2023-04-07T15:30:27.432Z,100577.44
2023-04-07T15:33:00.823Z,100568.50
2023-04-07T15:35:29.931Z,100572.09
2023-04-07T15:37:56.356Z,100576.31
2023-04-07T15:40:22.994Z,100579.69
2023-04-07T15:42:49.575Z,100579.91
2023-04-07T15:45:16.059Z,100573.38
2023-04-07T15:47:42.467Z,100578.22
2023-04-07T15:50:09.410Z,100578.53
2023-04-07T15:52:36.048Z,100584.41
2023-04-07T15:55:02.632Z,100588.78
2023-04-07T15:57:31.502Z,100586.66
2023-04-07T15:59:57.965Z,100586.66
2023-04-07T16:02:24.397Z,100588.53
2023-04-07T16:04:51.264Z,100591.72
2023-04-07T16:07:18.261Z,100596.69
2023-04-07T16:09:44.706Z,100598.97
2023-04-07T16:12:13.319Z,100597.16
2023-04-07T16:14:42.092Z,100603.81
2023-04-07T16:17:08.570Z,100601.00
2023-04-07T16:19:35.022Z,100606.19
2023-04-07T16:22:01.516Z,100608.25
2023-04-07T16:24:27.951Z,100603.72
2023-04-07T16:26:55.790Z,100613.09
2023-04-07T16:29:25.309Z,100613.75
2023-04-07T16:31:54.194Z,100611.47
2023-04-07T16:34:20.712Z,100612.38
2023-04-07T16:36:47.525Z,100616.94
2023-04-07T16:39:13.985Z,100610.91
2023-04-07T16:41:40.346Z,100620.34
2023-04-07T16:44:07.136Z,100622.13
2023-04-07T16:46:33.700Z,100626.94
2023-04-07T16:49:00.138Z,100627.16
2023-04-07T16:51:28.265Z,100622.44
2023-04-07T16:53:54.930Z,100634.34
2023-04-07T16:56:23.295Z,100631.59
2023-04-07T16:58:52.954Z,100644.69
2023-04-07T17:01:19.331Z,100642.22
2023-04-07T17:03:48.402Z,100638.59
2023-04-07T17:06:16.492Z,100646.56
2023-04-07T17:08:43.990Z,100649.66
2023-04-07T17:11:11.347Z,100656.06
2023-04-07T17:13:42.755Z,100657.78
2023-04-07T17:16:14.249Z,100653.78
2023-04-07T17:18:46.824Z,100659.56
2023-04-07T17:21:15.705Z,100664.72
2023-04-07T17:23:42.492Z,100675.34
2023-04-07T17:26:11.384Z,100675.56
2023-04-07T17:28:37.816Z,100673.63
2023-04-07T17:31:04.283Z,100686.00
2023-04-07T17:33:33.481Z,100684.03
2023-04-07T17:36:03.336Z,100684.97
2023-04-07T17:38:30.578Z,100679.66
2023-04-07T17:41:04.426Z,100691.84
2023-04-07T17:43:31.661Z,100700.81
2023-04-07T17:45:58.151Z,100699.31
2023-04-07T17:48:24.688Z,100698.84
2023-04-07T17:50:54.048Z,100702.00
2023-04-07T17:53:23.020Z,100703.91
2023-04-07T17:55:49.986Z,100703.19
2023-04-07T17:58:20.121Z,100702.84
2023-04-07T18:00:47.187Z,100705.75
2023-04-07T18:03:14.725Z,100710.88
2023-04-07T18:05:45.059Z,100720.53
2023-04-07T18:08:15.049Z,100723.59
2023-04-07T18:10:42.316Z,100723.88
2023-04-07T18:13:09.120Z,100721.22
2023-04-07T18:15:35.654Z,100728.66
2023-04-07T18:18:05.324Z,100730.91
2023-04-07T18:20:34.268Z,100731.13
2023-04-07T18:23:13.653Z,100736.34
2023-04-07T18:25:40.065Z,100739.53
2023-04-07T18:28:06.459Z,100737.72
2023-04-07T18:30:33.079Z,100743.38
2023-04-07T18:32:59.452Z,100740.53
2023-04-07T18:35:26.231Z,100757.59
2023-04-07T18:37:52.696Z,100751.66
2023-04-07T18:40:19.125Z,100752.16
2023-04-07T18:42:45.603Z,100756.47
2023-04-07T18:45:11.976Z,100760.81
2023-04-07T18:47:38.956Z,100761.41
2023-04-07T18:50:05.940Z,100768.72
2023-04-07T18:52:32.437Z,100768.00
2023-04-07T18:55:01.225Z,100773.97
2023-04-07T18:57:30.732Z,100779.13
2023-04-07T18:59:57.285Z,100776.06
2023-04-07T19:02:23.786Z,100781.25
2023-04-07T19:04:50.443Z,100778.13
2023-04-07T19:07:16.818Z,100781.88
2023-04-07T19:09:43.313Z,100789.28
2023-04-07T19:12:11.221Z,100792.59
2023-04-07T19:14:37.727Z,100790.69
2023-04-07T19:17:06.433Z,100794.56
2023-04-07T19:19:33.366Z,100796.72
2023-04-07T19:21:59.904Z,100796.75
2023-04-07T19:24:26.445Z,100801.72
2023-04-07T19:26:53.861Z,100805.81
2023-04-07T19:29:20.317Z,100805.00
2023-04-07T19:31:49.266Z,100810.91
2023-04-07T19:34:15.843Z,100814.03
2023-04-07T19:36:42.269Z,100816.19
2023-04-07T19:39:08.688Z,100824.41
2023-04-07T19:41:37.996Z,100818.00
2023-04-07T19:44:04.356Z,100824.25
2023-04-07T19:46:33.157Z,100818.63
2023-04-07T19:49:04.363Z,100824.91
2023-04-07T19:51:31.045Z,100829.31
2023-04-07T19:53:57.464Z,100839.69
2023-04-07T19:56:25.016Z,100831.97
2023-04-07T19:58:51.580Z,100838.38
2023-04-07T20:01:18.230Z,100845.28
2023-04-07T20:03:45.358Z,100838.22
2023-04-07T20:06:18.034Z,100839.38
2023-04-07T20:08:44.399Z,100835.06
2023-04-07T20:11:11.202Z,100841.50
2023-04-07T20:13:39.544Z,100838.38
2023-04-07T20:16:06.457Z,100845.44
2023-04-07T20:18:32.935Z,100846.09
2023-04-07T20:21:06.243Z,100849.88
2023-04-07T20:23:33.329Z,100849.53
2023-04-07T20:25:59.922Z,100854.50
2023-04-07T20:28:26.735Z,100851.34
2023-04-07T20:30:53.198Z,100848.72
2023-04-07T20:33:19.994Z,100846.44
2023-04-07T20:35:47.056Z,100849.06
2023-04-07T20:38:18.813Z,100847.38
2023-04-07T20:40:45.482Z,100838.69
2023-04-07T20:43:12.007Z,100853.16
2023-04-07T20:45:40.855Z,100848.22
2023-04-07T20:48:07.621Z,100851.16
2023-04-07T20:50:34.096Z,100857.59
2023-04-07T20:53:05.420Z,100857.59
2023-04-07T20:55:31.753Z,100852.63
2023-04-07T20:57:58.819Z,100857.69
2023-04-07T21:00:25.943Z,100843.72
2023-04-07T21:02:52.541Z,100854.59
2023-04-07T21:05:19.120Z,100854.28
2023-04-07T21:07:45.503Z,100856.59
2023-04-07T21:10:12.263Z,100850.28
2023-04-07T21:12:41.379Z,100862.09
2023-04-07T21:15:11.403Z,100866.50
2023-04-07T21:17:37.989Z,100867.47
2023-04-07T21:20:04.746Z,100868.81
2023-04-07T21:22:31.172Z,100862.00
2023-04-07T21:25:00.266Z,100857.75
2023-04-07T21:27:26.646Z,100868.25
2023-04-07T21:29:55.433Z,100858.81
2023-04-07T21:32:25.099Z,100859.19
2023-04-07T21:34:52.952Z,100862.53
2023-04-07T21:37:20.601Z,100873.88
2023-04-07T21:39:46.960Z,100863.38
2023-04-07T21:42:13.492Z,100867.59
2023-04-07T21:44:42.251Z,100871.00
2023-04-07T21:47:08.832Z,100864.19
2023-04-07T21:49:36.130Z,100866.38
2023-04-07T21:52:02.583Z,100863.47
2023-04-07T21:54:31.297Z,100876.25
2023-04-07T21:56:57.727Z,100870.72
2023-04-07T21:59:24.075Z,100874.75
2023-04-07T22:01:50.510Z,100885.25
2023-04-07T22:04:19.951Z,100885.69
2023-04-07T22:06:49.821Z,100883.31
2023-04-07T22:09:16.192Z,100876.38
2023-04-07T22:11:42.701Z,100885.69
2023-04-07T22:14:11.663Z,100888.63
2023-04-07T22:16:38.277Z,100888.59
2023-04-07T22:19:04.710Z,100888.78
2023-04-07T22:21:31.432Z,100883.81
2023-04-07T22:23:57.788Z,100889.22
2023-04-07T22:26:24.314Z,100892.59
2023-04-07T22:28:51.282Z,100899.41
2023-04-07T22:31:21.053Z,100899.38
2023-04-07T22:33:47.588Z,100896.19
2023-04-07T22:36:16.296Z,100896.00
2023-04-07T22:38:42.969Z,100901.69
2023-04-07T22:41:11.985Z,100910.88
2023-04-07T22:43:38.445Z,100908.06
2023-04-07T22:46:04.835Z,100908.47
2023-04-07T22:48:31.319Z,100917.69
2023-04-07T22:50:57.654Z,100916.06
2023-04-07T22:53:24.050Z,100921.00
2023-04-07T22:55:51.277Z,100921.28
2023-04-07T22:58:20.009Z,100921.81
2023-04-07T23:00:46.477Z,100919.22
2023-04-07T23:03:14.742Z,100911.94
2023-04-07T23:05:43.638Z,100919.72
2023-04-07T23:08:10.444Z,100920.38
2023-04-07T23:10:41.889Z,100924.00
2023-04-07T23:13:08.314Z,100926.06
2023-04-07T23:15:35.894Z,100929.97
2023-04-07T23:18:02.305Z,100925.28
2023-04-07T23:20:28.772Z,100924.88
2023-04-07T23:22:55.502Z,100925.13
2023-04-07T23:25:22.208Z,100921.31
2023-04-07T23:27:48.730Z,100921.44
2023-04-07T23:30:15.555Z,100923.13
2023-04-07T23:32:44.558Z,100922.50
2023-04-07T23:35:11.072Z,100927.19
2023-04-07T23:37:40.113Z,100934.63
2023-04-07T23:40:07.289Z,100932.84
2023-04-07T23:42:33.644Z,100933.78
2023-04-07T23:45:00.379Z,100937.44
2023-04-07T23:47:27.006Z,100942.41
2023-04-07T23:49:53.541Z,100947.25
2023-04-07T23:52:21.416Z,100941.53
2023-04-07T23:54:47.973Z,100945.50
2023-04-07T23:57:14.400Z,100945.28
2023-04-07T23:59:40.796Z,100946.56
